createdAt,value
2022-12-18T00:01:38.081Z,49.20
2022-12-18T00:06:43.210Z,46.07
2022-12-18T00:11:49.587Z,46.40
2022-12-18T00:16:52.258Z,46.23
2022-12-18T00:21:59.373Z,44.00
2022-12-18T00:27:07.881Z,39.93
2022-12-18T00:32:12.915Z,37.43
2022-12-18T00:37:20.083Z,37.03
2022-12-18T00:42:45.978Z,34.90
2022-12-18T00:47:48.741Z,40.43
2022-12-18T00:52:51.954Z,23.97
2022-12-18T01:02:57.894Z,35.80
2022-12-18T01:08:04.187Z,33.90
2022-12-18T01:13:07.108Z,35.20
2022-12-18T01:18:09.843Z,29.92
2022-12-18T01:23:12.940Z,26.30
2022-12-18T01:28:15.816Z,35.38
2022-12-18T01:33:18.486Z,35.85
2022-12-18T01:38:21.154Z,23.80
2022-12-18T01:43:42.677Z,25.30
2022-12-18T01:48:48.842Z,51.10
2022-12-18T01:53:51.610Z,31.67
2022-12-18T01:59:00.094Z,29.13
2022-12-18T02:04:25.905Z,38.70
2022-12-18T02:09:38.337Z,34.10
2022-12-18T02:14:50.253Z,32.20
2022-12-18T02:20:15.722Z,37.60
2022-12-18T02:25:53.513Z,30.97
2022-12-18T02:31:01.203Z,25.57
2022-12-18T02:36:07.214Z,29.00
2022-12-18T02:41:18.368Z,28.30
2022-12-18T02:46:34.068Z,28.77
2022-12-18T02:52:22.961Z,28.17
2022-12-18T02:57:31.542Z,28.23
2022-12-18T03:02:47.805Z,27.50
2022-12-18T03:08:25.388Z,31.20
2022-12-18T03:13:39.209Z,28.73
2022-12-18T03:19:00.127Z,27.67
2022-12-18T03:24:05.822Z,30.53
2022-12-18T03:29:14.442Z,24.93
2022-12-18T03:34:23.288Z,22.53
2022-12-18T03:39:29.601Z,25.97
2022-12-18T03:45:05.347Z,24.67
2022-12-18T03:50:31.201Z,24.00
2022-12-18T03:55:35.103Z,23.17
2022-12-18T04:00:41.378Z,24.13
2022-12-18T04:05:50.530Z,24.77
2022-12-18T04:11:01.106Z,24.20
2022-12-18T04:16:07.777Z,24.83
2022-12-18T04:21:12.109Z,21.77
2022-12-18T04:26:14.832Z,22.93
2022-12-18T04:31:27.419Z,24.10
2022-12-18T04:36:31.763Z,24.65
2022-12-18T04:41:34.740Z,27.67
2022-12-18T04:46:39.437Z,33.07
2022-12-18T04:51:42.312Z,32.20
2022-12-18T04:56:44.868Z,27.60
2022-12-18T05:01:48.116Z,35.30
2022-12-18T05:06:50.985Z,32.58
2022-12-18T05:11:54.887Z,36.70
2022-12-18T05:17:00.858Z,48.63
2022-12-18T05:22:12.974Z,46.67
2022-12-18T05:27:15.570Z,42.00
2022-12-18T05:32:18.061Z,40.30
2022-12-18T05:37:20.556Z,32.03
2022-12-18T05:42:23.253Z,35.57
2022-12-18T05:47:26.259Z,25.40
2022-12-18T05:52:29.022Z,34.58
2022-12-18T05:57:31.632Z,23.37
2022-12-18T06:02:34.531Z,21.33
2022-12-18T06:07:38.022Z,24.65
2022-12-18T06:12:40.730Z,25.00
2022-12-18T06:17:44.629Z,24.03
2022-12-18T06:22:47.446Z,17.42
2022-12-18T06:27:49.992Z,28.57
2022-12-18T06:32:56.796Z,34.83
2022-12-18T06:37:59.583Z,35.03
2022-12-18T06:43:02.824Z,30.10
2022-12-18T06:48:05.540Z,15.40
2022-12-18T06:53:08.486Z,17.00
2022-12-18T06:58:11.333Z,19.90
2022-12-18T07:03:15.514Z,21.85
2022-12-18T07:08:18.085Z,19.65
2022-12-18T07:13:21.154Z,16.65
2022-12-18T07:18:23.786Z,15.83
2022-12-18T07:23:26.678Z,15.18
2022-12-18T07:28:29.569Z,15.93
2022-12-18T07:33:33.912Z,21.90
2022-12-18T07:38:37.277Z,21.20
2022-12-18T07:43:41.913Z,21.35
2022-12-18T07:48:49.748Z,19.60
2022-12-18T07:53:53.079Z,22.70
2022-12-18T07:59:02.577Z,15.43
2022-12-18T08:04:08.271Z,24.03
2022-12-18T08:09:14.470Z,17.42
2022-12-18T08:14:20.053Z,22.53
2022-12-18T08:19:27.849Z,24.57
2022-12-18T08:24:35.903Z,26.20
2022-12-18T08:29:41.584Z,27.47
2022-12-18T08:34:48.153Z,28.95
2022-12-18T08:39:55.124Z,27.20
2022-12-18T08:45:00.512Z,23.87
2022-12-18T08:50:07.711Z,24.00
2022-12-18T08:55:15.322Z,28.65
2022-12-18T09:00:21.705Z,34.30
2022-12-18T09:05:24.727Z,41.60
2022-12-18T09:10:33.144Z,15.07
2022-12-18T09:15:35.703Z,18.40
2022-12-18T09:20:39.434Z,15.63
2022-12-18T09:25:43.780Z,22.43
2022-12-18T09:30:50.037Z,22.35
2022-12-18T09:36:01.426Z,24.87
2022-12-18T09:41:32.956Z,17.35
2022-12-18T09:46:44.322Z,19.27
2022-12-18T09:53:06.464Z,16.73
2022-12-18T10:13:04.931Z,20.92
2022-12-18T10:24:12.127Z,14.52
2022-12-18T10:30:04.357Z,17.27
2022-12-18T10:49:24.852Z,16.17
2022-12-18T10:55:00.956Z,20.20
2022-12-18T11:00:47.002Z,19.20
2022-12-18T11:06:03.080Z,19.93
2022-12-18T11:11:17.371Z,18.83
2022-12-18T11:16:21.360Z,26.07
2022-12-18T11:21:25.733Z,27.48
2022-12-18T11:26:36.945Z,25.30
2022-12-18T11:31:40.143Z,54.47
2022-12-18T11:36:49.556Z,25.58
2022-12-18T11:42:12.018Z,20.00
2022-12-18T11:47:31.126Z,14.20
2022-12-18T11:52:40.836Z,18.33
2022-12-18T11:57:44.813Z,19.43
2022-12-18T12:03:19.642Z,19.73
2022-12-18T12:09:01.832Z,21.17
2022-12-18T12:14:39.740Z,21.50
2022-12-18T12:20:03.060Z,19.30
2022-12-18T12:25:23.069Z,30.50
2022-12-18T12:30:34.042Z,38.43
2022-12-18T12:35:56.132Z,24.90
2022-12-18T12:41:04.147Z,24.00
2022-12-18T12:46:19.438Z,21.67
2022-12-18T12:51:45.195Z,21.00
2022-12-18T12:57:05.843Z,26.10
2022-12-18T13:02:37.091Z,27.33
2022-12-18T13:07:45.585Z,24.77
2022-12-18T13:13:10.476Z,28.17
2022-12-18T13:18:15.310Z,30.80
2022-12-18T13:23:27.531Z,29.83
2022-12-18T13:28:48.494Z,28.87
2022-12-18T13:34:24.985Z,30.30
2022-12-18T13:39:25.806Z,29.60
2022-12-18T13:44:41.643Z,29.53
2022-12-18T13:49:45.383Z,24.57
2022-12-18T13:54:53.871Z,31.53
2022-12-18T13:59:58.020Z,29.00
2022-12-18T14:05:00.614Z,29.53
2022-12-18T14:10:33.591Z,22.42
2022-12-18T14:15:26.555Z,22.13
2022-12-18T14:20:31.252Z,30.17
2022-12-18T14:25:34.621Z,30.97
2022-12-18T14:30:42.379Z,29.33
2022-12-18T14:35:58.181Z,31.37
2022-12-18T14:41:03.281Z,29.73
2022-12-18T14:46:08.709Z,31.67
2022-12-18T14:51:11.522Z,34.80
2022-12-18T14:56:24.050Z,31.10
2022-12-18T15:01:29.573Z,33.70
2022-12-18T15:06:37.287Z,31.77
2022-12-18T15:11:42.913Z,33.30
2022-12-18T15:16:46.283Z,32.27
2022-12-18T15:21:49.337Z,36.80
2022-12-18T15:26:52.288Z,37.22
2022-12-18T15:32:05.705Z,38.17
2022-12-18T15:37:09.202Z,40.90
2022-12-18T15:47:34.245Z,37.23
2022-12-18T15:52:50.874Z,40.33
2022-12-18T15:57:53.417Z,42.90
2022-12-18T16:02:56.046Z,44.10
2022-12-18T16:08:09.213Z,42.97
2022-12-18T16:13:22.807Z,45.43
2022-12-18T16:18:25.371Z,33.97
2022-12-18T16:23:28.259Z,32.20
2022-12-18T16:28:31.210Z,37.55
2022-12-18T16:33:36.716Z,45.63
2022-12-18T16:38:39.343Z,46.40
2022-12-18T16:43:42.299Z,33.30
2022-12-18T16:48:44.962Z,47.40
2022-12-18T16:53:47.454Z,48.27
2022-12-18T16:58:57.172Z,48.23
2022-12-18T17:04:04.926Z,48.23
2022-12-18T17:09:09.761Z,46.93
2022-12-18T17:14:23.496Z,49.33
2022-12-18T17:19:27.209Z,50.17
2022-12-18T17:24:34.564Z,50.63
2022-12-18T17:29:41.327Z,52.70
2022-12-18T17:34:47.751Z,50.53
2022-12-18T17:39:50.268Z,38.60
2022-12-18T17:44:52.840Z,37.47
2022-12-18T17:49:55.322Z,38.87
2022-12-18T17:54:58.378Z,51.25
2022-12-18T18:00:00.927Z,39.77
2022-12-18T18:05:04.901Z,53.17
2022-12-18T18:10:10.554Z,51.50
2022-12-18T18:15:13.475Z,51.83
2022-12-18T18:20:22.369Z,52.33
2022-12-18T18:25:26.971Z,49.93
2022-12-18T18:30:30.657Z,51.67
2022-12-18T18:41:03.270Z,52.17
2022-12-18T18:46:06.287Z,50.77
2022-12-18T18:51:12.802Z,50.72
2022-12-18T19:01:46.015Z,51.73
2022-12-18T19:06:49.559Z,53.13
2022-12-18T19:17:13.749Z,54.27
2022-12-18T19:22:16.558Z,48.58
2022-12-18T19:27:19.185Z,50.80
2022-12-18T19:32:22.675Z,49.30
2022-12-18T19:37:26.258Z,50.60
2022-12-18T19:42:35.224Z,48.60
2022-12-18T19:47:38.325Z,50.53
2022-12-18T19:52:41.174Z,47.20
2022-12-18T19:57:44.008Z,44.83
2022-12-18T20:02:48.015Z,48.13
2022-12-18T20:07:50.628Z,34.63
2022-12-18T20:12:53.432Z,37.17
2022-12-18T20:17:57.345Z,46.33
2022-12-18T20:23:00.292Z,46.20
2022-12-18T20:28:02.852Z,40.40
2022-12-18T20:33:05.467Z,36.13
2022-12-18T20:38:09.612Z,47.87
2022-12-18T20:43:17.347Z,46.13
2022-12-18T20:48:25.044Z,43.87
2022-12-18T20:53:54.946Z,47.20
2022-12-18T20:59:02.794Z,46.93
2022-12-18T21:21:46.264Z,46.70
2022-12-18T21:27:58.129Z,49.77
2022-12-18T21:33:08.536Z,48.53
2022-12-18T21:38:11.272Z,51.27
2022-12-18T21:43:34.045Z,50.88
2022-12-18T21:54:33.519Z,54.60
2022-12-18T22:00:30.929Z,56.87
2022-12-18T22:06:09.840Z,55.93
2022-12-18T22:12:08.261Z,57.50
2022-12-18T22:18:37.610Z,57.87
2022-12-18T22:30:25.190Z,63.73
2022-12-18T22:35:28.158Z,49.20
2022-12-18T22:40:30.634Z,62.25
2022-12-18T22:45:36.291Z,66.65
2022-12-18T22:50:41.100Z,64.43
2022-12-18T22:55:44.132Z,53.22
2022-12-18T23:00:46.573Z,62.92
2022-12-18T23:05:49.064Z,48.37
2022-12-18T23:10:53.549Z,62.03
2022-12-18T23:15:56.191Z,65.75
2022-12-18T23:20:58.652Z,59.30
2022-12-18T23:31:14.685Z,60.23
2022-12-18T23:36:19.080Z,62.93
2022-12-18T23:41:23.270Z,64.38
2022-12-18T23:46:27.469Z,59.87
2022-12-18T23:51:32.563Z,60.47
2022-12-18T23:56:38.692Z,59.57
